sensor_id;sensor_type;location;lat;lon;timestamp;P1;durP1;ratioP1;P2;durP2;ratioP2
3487;SDS011;38546;48.170;11.724;2022-11-20T00:00:03;4.30;;;3.90;;
3487;SDS011;38546;48.170;11.724;2022-11-20T00:02:53;4.60;;;3.70;;
3487;SDS011;38546;48.170;11.724;2022-11-20T00:05:42;3.20;;;3.00;;
3487;SDS011;38546;48.170;11.724;2022-11-20T00:08:32;8.20;;;4.40;;
3487;SDS011;38546;48.170;11.724;2022-11-20T00:11:22;3.17;;;2.87;;
3487;SDS011;38546;48.170;11.724;2022-11-20T00:14:13;3.93;;;3.57;;
3487;SDS011;38546;48.170;11.724;2022-11-20T00:17:03;7.83;;;3.83;;
3487;SDS011;38546;48.170;11.724;2022-11-20T00:19:52;3.47;;;3.17;;
3487;SDS011;38546;48.170;11.724;2022-11-20T00:22:42;4.03;;;3.60;;
3487;SDS011;38546;48.170;11.724;2022-11-20T00:25:33;3.57;;;3.27;;
3487;SDS011;38546;48.170;11.724;2022-11-20T00:28:23;4.50;;;3.70;;
3487;SDS011;38546;48.170;11.724;2022-11-20T00:31:13;6.17;;;4.60;;
3487;SDS011;38546;48.170;11.724;2022-11-20T00:34:04;6.77;;;4.20;;
3487;SDS011;38546;48.170;11.724;2022-11-20T00:36:54;5.50;;;3.73;;
3487;SDS011;38546;48.170;11.724;2022-11-20T00:39:43;4.37;;;3.80;;
3487;SDS011;38546;48.170;11.724;2022-11-20T00:42:32;3.63;;;3.30;;
3487;SDS011;38546;48.170;11.724;2022-11-20T00:45:22;5.47;;;4.10;;
3487;SDS011;38546;48.170;11.724;2022-11-20T00:48:11;6.93;;;3.47;;
3487;SDS011;38546;48.170;11.724;2022-11-20T00:51:00;4.70;;;4.17;;
3487;SDS011;38546;48.170;11.724;2022-11-20T00:53:50;4.73;;;3.83;;
3487;SDS011;38546;48.170;11.724;2022-11-20T00:56:40;6.70;;;4.63;;
3487;SDS011;38546;48.170;11.724;2022-11-20T00:59:29;5.07;;;3.83;;
3487;SDS011;38546;48.170;11.724;2022-11-20T01:02:18;3.63;;;3.33;;
3487;SDS011;38546;48.170;11.724;2022-11-20T01:05:08;5.93;;;4.47;;
3487;SDS011;38546;48.170;11.724;2022-11-20T01:07:58;4.27;;;3.53;;
3487;SDS011;38546;48.170;11.724;2022-11-20T01:10:47;4.07;;;3.63;;
3487;SDS011;38546;48.170;11.724;2022-11-20T01:13:36;6.03;;;4.27;;
3487;SDS011;38546;48.170;11.724;2022-11-20T01:16:27;6.60;;;4.27;;
3487;SDS011;38546;48.170;11.724;2022-11-20T01:19:25;4.60;;;3.77;;
3487;SDS011;38546;48.170;11.724;2022-11-20T01:22:14;4.33;;;3.83;;
3487;SDS011;38546;48.170;11.724;2022-11-20T01:25:03;7.93;;;4.50;;
3487;SDS011;38546;48.170;11.724;2022-11-20T01:27:54;6.20;;;4.10;;
3487;SDS011;38546;48.170;11.724;2022-11-20T01:30:43;5.77;;;4.10;;
3487;SDS011;38546;48.170;11.724;2022-11-20T01:33:32;6.40;;;4.00;;
3487;SDS011;38546;48.170;11.724;2022-11-20T01:36:22;8.50;;;4.40;;
3487;SDS011;38546;48.170;11.724;2022-11-20T01:39:22;5.57;;;4.80;;
3487;SDS011;38546;48.170;11.724;2022-11-20T01:42:14;6.10;;;4.40;;
3487;SDS011;38546;48.170;11.724;2022-11-20T01:48:56;5.37;;;4.30;;
3487;SDS011;38546;48.170;11.724;2022-11-20T01:52:05;4.80;;;4.10;;
3487;SDS011;38546;48.170;11.724;2022-11-20T01:55:09;4.40;;;3.70;;
3487;SDS011;38546;48.170;11.724;2022-11-20T01:58:04;4.43;;;3.80;;
3487;SDS011;38546;48.170;11.724;2022-11-20T02:00:54;7.37;;;3.80;;
3487;SDS011;38546;48.170;11.724;2022-11-20T02:03:45;5.47;;;4.40;;
3487;SDS011;38546;48.170;11.724;2022-11-20T02:06:36;4.13;;;3.77;;
3487;SDS011;38546;48.170;11.724;2022-11-20T02:09:34;5.30;;;3.70;;
3487;SDS011;38546;48.170;11.724;2022-11-20T02:12:24;4.43;;;4.03;;
3487;SDS011;38546;48.170;11.724;2022-11-20T02:15:32;4.27;;;3.47;;
3487;SDS011;38546;48.170;11.724;2022-11-20T02:18:22;5.07;;;3.77;;
3487;SDS011;38546;48.170;11.724;2022-11-20T02:21:15;4.17;;;3.70;;
3487;SDS011;38546;48.170;11.724;2022-11-20T02:25:58;4.30;;;3.90;;
3487;SDS011;38546;48.170;11.724;2022-11-20T02:28:51;5.67;;;4.30;;
3487;SDS011;38546;48.170;11.724;2022-11-20T02:31:41;4.47;;;4.03;;
3487;SDS011;38546;48.170;11.724;2022-11-20T02:34:32;4.77;;;3.70;;
3487;SDS011;38546;48.170;11.724;2022-11-20T02:37:22;3.60;;;3.30;;
3487;SDS011;38546;48.170;11.724;2022-11-20T02:40:18;5.80;;;3.83;;
3487;SDS011;38546;48.170;11.724;2022-11-20T02:43:07;4.67;;;3.40;;
3487;SDS011;38546;48.170;11.724;2022-11-20T02:45:58;6.30;;;4.53;;
3487;SDS011;38546;48.170;11.724;2022-11-20T02:48:47;6.00;;;4.30;;
3487;SDS011;38546;48.170;11.724;2022-11-20T02:51:37;9.53;;;4.80;;
3487;SDS011;38546;48.170;11.724;2022-11-20T02:54:26;3.90;;;3.50;;
3487;SDS011;38546;48.170;11.724;2022-11-20T02:57:16;6.90;;;4.60;;
3487;SDS011;38546;48.170;11.724;2022-11-20T03:00:06;5.10;;;4.03;;
3487;SDS011;38546;48.170;11.724;2022-11-20T03:02:57;5.93;;;4.03;;
3487;SDS011;38546;48.170;11.724;2022-11-20T03:05:47;6.07;;;4.20;;
3487;SDS011;38546;48.170;11.724;2022-11-20T03:08:36;5.20;;;4.00;;
3487;SDS011;38546;48.170;11.724;2022-11-20T03:11:26;6.37;;;4.20;;
3487;SDS011;38546;48.170;11.724;2022-11-20T03:14:16;4.70;;;3.70;;
3487;SDS011;38546;48.170;11.724;2022-11-20T03:17:06;8.10;;;3.80;;
3487;SDS011;38546;48.170;11.724;2022-11-20T03:19:56;10.43;;;3.97;;
3487;SDS011;38546;48.170;11.724;2022-11-20T03:22:46;6.13;;;3.90;;
3487;SDS011;38546;48.170;11.724;2022-11-20T03:25:35;5.73;;;4.50;;
3487;SDS011;38546;48.170;11.724;2022-11-20T03:28:24;4.80;;;3.83;;
3487;SDS011;38546;48.170;11.724;2022-11-20T03:31:14;5.90;;;4.20;;
3487;SDS011;38546;48.170;11.724;2022-11-20T03:34:06;4.37;;;3.13;;
3487;SDS011;38546;48.170;11.724;2022-11-20T03:36:57;6.43;;;3.37;;
3487;SDS011;38546;48.170;11.724;2022-11-20T03:39:46;4.50;;;4.10;;
3487;SDS011;38546;48.170;11.724;2022-11-20T03:42:35;3.97;;;3.57;;
3487;SDS011;38546;48.170;11.724;2022-11-20T03:45:33;3.70;;;3.40;;
3487;SDS011;38546;48.170;11.724;2022-11-20T03:48:23;4.03;;;3.60;;
3487;SDS011;38546;48.170;11.724;2022-11-20T03:51:17;3.57;;;3.37;;
3487;SDS011;38546;48.170;11.724;2022-11-20T03:54:42;5.83;;;3.27;;
3487;SDS011;38546;48.170;11.724;2022-11-20T03:57:31;4.07;;;3.63;;
3487;SDS011;38546;48.170;11.724;2022-11-20T04:00:21;4.47;;;3.40;;
3487;SDS011;38546;48.170;11.724;2022-11-20T04:03:10;3.23;;;2.93;;
3487;SDS011;38546;48.170;11.724;2022-11-20T04:06:07;4.10;;;3.57;;
3487;SDS011;38546;48.170;11.724;2022-11-20T04:09:02;3.50;;;2.80;;
3487;SDS011;38546;48.170;11.724;2022-11-20T04:11:52;9.23;;;4.00;;
3487;SDS011;38546;48.170;11.724;2022-11-20T04:14:42;5.40;;;3.77;;
3487;SDS011;38546;48.170;11.724;2022-11-20T04:17:31;6.07;;;3.87;;
3487;SDS011;38546;48.170;11.724;2022-11-20T04:20:20;4.90;;;3.50;;
3487;SDS011;38546;48.170;11.724;2022-11-20T04:23:09;4.30;;;2.83;;
3487;SDS011;38546;48.170;11.724;2022-11-20T04:26:03;4.73;;;3.87;;
3487;SDS011;38546;48.170;11.724;2022-11-20T04:28:57;5.30;;;3.37;;
3487;SDS011;38546;48.170;11.724;2022-11-20T04:31:47;4.37;;;3.80;;
3487;SDS011;38546;48.170;11.724;2022-11-20T04:34:36;5.83;;;4.30;;
3487;SDS011;38546;48.170;11.724;2022-11-20T04:37:26;4.23;;;3.30;;
3487;SDS011;38546;48.170;11.724;2022-11-20T04:40:15;3.03;;;2.80;;
3487;SDS011;38546;48.170;11.724;2022-11-20T04:43:05;3.43;;;3.07;;
3487;SDS011;38546;48.170;11.724;2022-11-20T04:45:55;5.13;;;4.00;;
3487;SDS011;38546;48.170;11.724;2022-11-20T04:48:46;3.50;;;2.40;;
3487;SDS011;38546;48.170;11.724;2022-11-20T04:51:36;3.17;;;2.87;;
3487;SDS011;38546;48.170;11.724;2022-11-20T04:54:26;3.60;;;3.30;;
3487;SDS011;38546;48.170;11.724;2022-11-20T04:57:16;3.63;;;3.03;;
3487;SDS011;38546;48.170;11.724;2022-11-20T05:00:06;4.50;;;3.30;;
3487;SDS011;38546;48.170;11.724;2022-11-20T05:02:57;3.77;;;3.47;;
3487;SDS011;38546;48.170;11.724;2022-11-20T05:05:46;4.13;;;3.70;;
3487;SDS011;38546;48.170;11.724;2022-11-20T05:08:35;3.93;;;3.20;;
3487;SDS011;38546;48.170;11.724;2022-11-20T05:11:25;3.17;;;2.87;;
3487;SDS011;38546;48.170;11.724;2022-11-20T05:14:17;5.57;;;3.27;;
3487;SDS011;38546;48.170;11.724;2022-11-20T05:17:09;4.40;;;3.60;;
3487;SDS011;38546;48.170;11.724;2022-11-20T05:20:00;5.00;;;3.50;;
3487;SDS011;38546;48.170;11.724;2022-11-20T05:22:49;6.47;;;3.80;;
3487;SDS011;38546;48.170;11.724;2022-11-20T05:25:39;4.43;;;4.03;;
3487;SDS011;38546;48.170;11.724;2022-11-20T05:28:28;4.80;;;4.20;;
3487;SDS011;38546;48.170;11.724;2022-11-20T05:31:20;3.70;;;3.40;;
3487;SDS011;38546;48.170;11.724;2022-11-20T05:34:14;3.10;;;2.80;;
3487;SDS011;38546;48.170;11.724;2022-11-20T05:37:03;3.37;;;3.07;;
3487;SDS011;38546;48.170;11.724;2022-11-20T05:39:53;4.57;;;3.60;;
3487;SDS011;38546;48.170;11.724;2022-11-20T05:42:42;6.00;;;4.40;;
3487;SDS011;38546;48.170;11.724;2022-11-20T05:45:32;5.93;;;4.20;;
3487;SDS011;38546;48.170;11.724;2022-11-20T05:48:21;6.37;;;4.47;;
3487;SDS011;38546;48.170;11.724;2022-11-20T05:51:11;6.20;;;4.03;;
3487;SDS011;38546;48.170;11.724;2022-11-20T05:54:04;5.27;;;4.10;;
3487;SDS011;38546;48.170;11.724;2022-11-20T05:56:54;10.80;;;4.83;;
3487;SDS011;38546;48.170;11.724;2022-11-20T05:59:43;4.15;;;3.75;;
3487;SDS011;38546;48.170;11.724;2022-11-20T06:02:34;5.80;;;4.03;;
3487;SDS011;38546;48.170;11.724;2022-11-20T06:05:24;4.43;;;3.70;;
3487;SDS011;38546;48.170;11.724;2022-11-20T06:08:13;3.63;;;3.40;;
3487;SDS011;38546;48.170;11.724;2022-11-20T06:11:06;4.50;;;4.10;;
3487;SDS011;38546;48.170;11.724;2022-11-20T06:13:57;5.00;;;4.10;;
3487;SDS011;38546;48.170;11.724;2022-11-20T06:16:47;4.90;;;3.87;;
3487;SDS011;38546;48.170;11.724;2022-11-20T06:19:36;4.60;;;3.70;;
3487;SDS011;38546;48.170;11.724;2022-11-20T06:22:25;4.43;;;3.80;;
3487;SDS011;38546;48.170;11.724;2022-11-20T06:25:14;3.67;;;3.37;;
3487;SDS011;38546;48.170;11.724;2022-11-20T06:28:03;5.30;;;3.97;;
3487;SDS011;38546;48.170;11.724;2022-11-20T06:30:52;4.43;;;3.80;;
3487;SDS011;38546;48.170;11.724;2022-11-20T06:33:41;4.23;;;3.80;;
3487;SDS011;38546;48.170;11.724;2022-11-20T06:36:32;5.13;;;3.80;;
3487;SDS011;38546;48.170;11.724;2022-11-20T06:39:21;5.27;;;4.03;;
3487;SDS011;38546;48.170;11.724;2022-11-20T06:42:10;7.53;;;4.33;;
3487;SDS011;38546;48.170;11.724;2022-11-20T06:44:59;5.10;;;3.13;;
3487;SDS011;38546;48.170;11.724;2022-11-20T06:47:48;4.10;;;3.53;;
3487;SDS011;38546;48.170;11.724;2022-11-20T06:50:37;12.13;;;3.57;;
3487;SDS011;38546;48.170;11.724;2022-11-20T06:53:26;6.10;;;3.83;;
3487;SDS011;38546;48.170;11.724;2022-11-20T06:56:15;3.70;;;3.40;;
3487;SDS011;38546;48.170;11.724;2022-11-20T06:59:05;3.83;;;3.40;;
3487;SDS011;38546;48.170;11.724;2022-11-20T07:01:56;4.37;;;3.30;;
3487;SDS011;38546;48.170;11.724;2022-11-20T07:04:45;4.53;;;3.23;;
3487;SDS011;38546;48.170;11.724;2022-11-20T07:07:34;4.23;;;3.83;;
3487;SDS011;38546;48.170;11.724;2022-11-20T07:10:23;4.47;;;3.23;;
3487;SDS011;38546;48.170;11.724;2022-11-20T07:13:13;3.43;;;3.13;;
3487;SDS011;38546;48.170;11.724;2022-11-20T07:16:04;3.10;;;2.90;;
3487;SDS011;38546;48.170;11.724;2022-11-20T07:18:56;3.00;;;2.80;;
3487;SDS011;38546;48.170;11.724;2022-11-20T07:21:45;2.83;;;2.63;;
3487;SDS011;38546;48.170;11.724;2022-11-20T07:24:34;3.17;;;2.80;;
3487;SDS011;38546;48.170;11.724;2022-11-20T07:27:23;3.57;;;3.27;;
3487;SDS011;38546;48.170;11.724;2022-11-20T07:30:12;2.57;;;2.37;;
3487;SDS011;38546;48.170;11.724;2022-11-20T07:33:02;3.67;;;2.93;;
3487;SDS011;38546;48.170;11.724;2022-11-20T07:35:51;3.47;;;2.93;;
3487;SDS011;38546;48.170;11.724;2022-11-20T07:38:41;3.53;;;3.30;;
3487;SDS011;38546;48.170;11.724;2022-11-20T07:41:31;4.00;;;3.30;;
3487;SDS011;38546;48.170;11.724;2022-11-20T07:44:20;3.47;;;3.17;;
3487;SDS011;38546;48.170;11.724;2022-11-20T07:47:09;3.37;;;3.10;;
3487;SDS011;38546;48.170;11.724;2022-11-20T07:49:58;3.87;;;3.57;;
3487;SDS011;38546;48.170;11.724;2022-11-20T07:52:46;3.53;;;3.23;;
3487;SDS011;38546;48.170;11.724;2022-11-20T07:55:36;3.80;;;2.93;;
3487;SDS011;38546;48.170;11.724;2022-11-20T07:58:25;6.90;;;3.50;;
3487;SDS011;38546;48.170;11.724;2022-11-20T08:01:14;4.83;;;3.00;;
3487;SDS011;38546;48.170;11.724;2022-11-20T08:04:04;3.20;;;2.90;;
3487;SDS011;38546;48.170;11.724;2022-11-20T08:06:53;4.97;;;3.20;;
3487;SDS011;38546;48.170;11.724;2022-11-20T08:09:42;5.10;;;2.70;;
3487;SDS011;38546;48.170;11.724;2022-11-20T08:12:32;3.30;;;3.00;;
3487;SDS011;38546;48.170;11.724;2022-11-20T08:15:40;3.43;;;3.13;;
3487;SDS011;38546;48.170;11.724;2022-11-20T08:18:35;4.83;;;3.27;;
3487;SDS011;38546;48.170;11.724;2022-11-20T08:21:25;3.17;;;2.87;;
3487;SDS011;38546;48.170;11.724;2022-11-20T08:24:14;4.20;;;3.80;;
3487;SDS011;38546;48.170;11.724;2022-11-20T08:27:04;4.73;;;3.17;;
3487;SDS011;38546;48.170;11.724;2022-11-20T08:29:53;2.77;;;2.57;;
3487;SDS011;38546;48.170;11.724;2022-11-20T08:32:43;3.10;;;2.80;;
3487;SDS011;38546;48.170;11.724;2022-11-20T08:35:32;2.60;;;2.40;;
3487;SDS011;38546;48.170;11.724;2022-11-20T08:38:23;3.37;;;3.07;;
3487;SDS011;38546;48.170;11.724;2022-11-20T08:41:13;3.00;;;2.80;;
3487;SDS011;38546;48.170;11.724;2022-11-20T08:44:12;4.03;;;2.80;;
3487;SDS011;38546;48.170;11.724;2022-11-20T08:47:02;3.27;;;2.97;;
3487;SDS011;38546;48.170;11.724;2022-11-20T08:49:52;6.20;;;3.17;;
3487;SDS011;38546;48.170;11.724;2022-11-20T08:52:42;5.20;;;2.10;;
3487;SDS011;38546;48.170;11.724;2022-11-20T08:55:32;6.00;;;3.17;;
3487;SDS011;38546;48.170;11.724;2022-11-20T08:58:23;3.20;;;2.80;;
3487;SDS011;38546;48.170;11.724;2022-11-20T09:01:14;2.47;;;2.37;;
3487;SDS011;38546;48.170;11.724;2022-11-20T09:04:04;3.23;;;2.93;;
3487;SDS011;38546;48.170;11.724;2022-11-20T09:06:53;6.37;;;3.37;;
3487;SDS011;38546;48.170;11.724;2022-11-20T09:09:42;2.90;;;2.80;;
3487;SDS011;38546;48.170;11.724;2022-11-20T09:12:32;3.13;;;2.83;;
3487;SDS011;38546;48.170;11.724;2022-11-20T09:15:22;3.60;;;3.40;;
3487;SDS011;38546;48.170;11.724;2022-11-20T09:18:13;3.13;;;2.93;;
3487;SDS011;38546;48.170;11.724;2022-11-20T09:21:03;2.80;;;2.70;;
3487;SDS011;38546;48.170;11.724;2022-11-20T09:23:57;4.90;;;3.57;;
3487;SDS011;38546;48.170;11.724;2022-11-20T09:26:46;2.80;;;2.60;;
3487;SDS011;38546;48.170;11.724;2022-11-20T09:29:36;3.17;;;2.90;;
3487;SDS011;38546;48.170;11.724;2022-11-20T09:32:25;4.40;;;2.70;;
3487;SDS011;38546;48.170;11.724;2022-11-20T09:35:15;2.97;;;2.77;;
3487;SDS011;38546;48.170;11.724;2022-11-20T09:38:05;3.97;;;3.10;;
3487;SDS011;38546;48.170;11.724;2022-11-20T09:41:05;4.00;;;2.77;;
3487;SDS011;38546;48.170;11.724;2022-11-20T09:50:36;14.40;;;7.10;;
3487;SDS011;38546;48.170;11.724;2022-11-20T09:58:06;2.67;;;2.47;;
3487;SDS011;38546;48.170;11.724;2022-11-20T10:01:37;2.10;;;2.00;;
3487;SDS011;38546;48.170;11.724;2022-11-20T10:06:03;3.07;;;2.77;;
3487;SDS011;38546;48.170;11.724;2022-11-20T10:09:18;2.13;;;2.00;;
3487;SDS011;38546;48.170;11.724;2022-11-20T10:17:16;2.77;;;2.57;;
3487;SDS011;38546;48.170;11.724;2022-11-20T10:26:16;2.00;;;1.90;;
3487;SDS011;38546;48.170;11.724;2022-11-20T10:29:15;2.13;;;2.03;;
3487;SDS011;38546;48.170;11.724;2022-11-20T10:32:17;2.17;;;1.80;;
3487;SDS011;38546;48.170;11.724;2022-11-20T10:35:23;2.20;;;2.10;;
3487;SDS011;38546;48.170;11.724;2022-11-20T10:38:25;4.30;;;1.70;;
3487;SDS011;38546;48.170;11.724;2022-11-20T10:41:32;1.83;;;1.73;;
3487;SDS011;38546;48.170;11.724;2022-11-20T10:44:29;2.30;;;2.10;;
3487;SDS011;38546;48.170;11.724;2022-11-20T10:47:38;4.07;;;2.00;;
3487;SDS011;38546;48.170;11.724;2022-11-20T10:50:27;2.63;;;2.30;;
3487;SDS011;38546;48.170;11.724;2022-11-20T10:56:50;1.73;;;1.63;;
3487;SDS011;38546;48.170;11.724;2022-11-20T10:59:45;1.93;;;1.50;;
3487;SDS011;38546;48.170;11.724;2022-11-20T11:02:53;2.87;;;2.00;;
3487;SDS011;38546;48.170;11.724;2022-11-20T11:05:55;2.40;;;2.20;;
3487;SDS011;38546;48.170;11.724;2022-11-20T11:09:20;2.60;;;1.90;;
3487;SDS011;38546;48.170;11.724;2022-11-20T11:12:25;2.37;;;2.20;;
3487;SDS011;38546;48.170;11.724;2022-11-20T11:15:27;2.17;;;2.07;;
3487;SDS011;38546;48.170;11.724;2022-11-20T11:18:32;2.07;;;1.77;;
3487;SDS011;38546;48.170;11.724;2022-11-20T11:21:24;2.00;;;1.90;;
3487;SDS011;38546;48.170;11.724;2022-11-20T11:27:48;1.80;;;1.70;;
3487;SDS011;38546;48.170;11.724;2022-11-20T11:30:43;1.87;;;1.70;;
3487;SDS011;38546;48.170;11.724;2022-11-20T11:33:34;1.50;;;1.43;;
3487;SDS011;38546;48.170;11.724;2022-11-20T11:36:24;1.90;;;1.80;;
3487;SDS011;38546;48.170;11.724;2022-11-20T11:39:14;2.67;;;2.40;;
3487;SDS011;38546;48.170;11.724;2022-11-20T11:42:07;4.33;;;2.67;;
3487;SDS011;38546;48.170;11.724;2022-11-20T11:45:06;1.83;;;1.73;;
3487;SDS011;38546;48.170;11.724;2022-11-20T11:48:00;1.93;;;1.80;;
3487;SDS011;38546;48.170;11.724;2022-11-20T11:50:52;1.77;;;1.67;;
3487;SDS011;38546;48.170;11.724;2022-11-20T11:53:42;2.27;;;2.13;;
3487;SDS011;38546;48.170;11.724;2022-11-20T11:56:32;2.07;;;1.97;;
3487;SDS011;38546;48.170;11.724;2022-11-20T11:59:27;2.00;;;1.90;;
3487;SDS011;38546;48.170;11.724;2022-11-20T12:09:46;1.90;;;1.60;;
3487;SDS011;38546;48.170;11.724;2022-11-20T12:12:43;1.90;;;1.80;;
3487;SDS011;38546;48.170;11.724;2022-11-20T12:15:38;2.40;;;1.93;;
3487;SDS011;38546;48.170;11.724;2022-11-20T12:18:33;1.97;;;1.80;;
3487;SDS011;38546;48.170;11.724;2022-11-20T12:21:35;2.10;;;1.97;;
3487;SDS011;38546;48.170;11.724;2022-11-20T12:27:44;1.23;;;0.97;;
3487;SDS011;38546;48.170;11.724;2022-11-20T12:39:41;2.00;;;1.90;;
3487;SDS011;38546;48.170;11.724;2022-11-20T12:42:35;2.60;;;2.17;;
3487;SDS011;38546;48.170;11.724;2022-11-20T12:52:38;2.43;;;2.23;;
3487;SDS011;38546;48.170;11.724;2022-11-20T12:56:26;3.60;;;1.90;;
3487;SDS011;38546;48.170;11.724;2022-11-20T13:04:38;3.60;;;2.13;;
3487;SDS011;38546;48.170;11.724;2022-11-20T13:09:00;2.10;;;1.90;;
3487;SDS011;38546;48.170;11.724;2022-11-20T13:11:56;1.87;;;1.77;;
3487;SDS011;38546;48.170;11.724;2022-11-20T13:16:58;2.33;;;2.23;;
3487;SDS011;38546;48.170;11.724;2022-11-20T13:20:48;2.47;;;2.27;;
3487;SDS011;38546;48.170;11.724;2022-11-20T13:23:38;1.87;;;1.77;;
3487;SDS011;38546;48.170;11.724;2022-11-20T13:26:28;2.57;;;2.37;;
3487;SDS011;38546;48.170;11.724;2022-11-20T13:29:18;2.80;;;2.60;;
3487;SDS011;38546;48.170;11.724;2022-11-20T13:32:18;2.17;;;2.07;;
3487;SDS011;38546;48.170;11.724;2022-11-20T13:35:10;2.50;;;2.30;;
3487;SDS011;38546;48.170;11.724;2022-11-20T13:38:00;3.40;;;3.10;;
3487;SDS011;38546;48.170;11.724;2022-11-20T13:40:55;2.60;;;2.40;;
3487;SDS011;38546;48.170;11.724;2022-11-20T13:43:47;2.30;;;2.20;;
3487;SDS011;38546;48.170;11.724;2022-11-20T13:46:44;2.73;;;2.27;;
3487;SDS011;38546;48.170;11.724;2022-11-20T13:49:43;4.03;;;2.90;;
3487;SDS011;38546;48.170;11.724;2022-11-20T13:52:45;2.47;;;2.37;;
3487;SDS011;38546;48.170;11.724;2022-11-20T14:03:21;2.83;;;2.57;;
3487;SDS011;38546;48.170;11.724;2022-11-20T14:06:32;2.90;;;2.60;;
3487;SDS011;38546;48.170;11.724;2022-11-20T14:09:31;2.17;;;2.07;;
3487;SDS011;38546;48.170;11.724;2022-11-20T14:12:26;2.23;;;2.13;;
3487;SDS011;38546;48.170;11.724;2022-11-20T14:15:28;2.70;;;2.60;;
3487;SDS011;38546;48.170;11.724;2022-11-20T14:18:21;2.20;;;2.10;;
3487;SDS011;38546;48.170;11.724;2022-11-20T14:21:10;2.77;;;2.57;;
3487;SDS011;38546;48.170;11.724;2022-11-20T14:24:06;2.70;;;2.50;;
3487;SDS011;38546;48.170;11.724;2022-11-20T14:27:00;2.67;;;2.47;;
3487;SDS011;38546;48.170;11.724;2022-11-20T14:29:51;2.77;;;2.57;;
3487;SDS011;38546;48.170;11.724;2022-11-20T14:32:41;5.80;;;2.53;;
3487;SDS011;38546;48.170;11.724;2022-11-20T14:35:37;3.87;;;2.70;;
3487;SDS011;38546;48.170;11.724;2022-11-20T14:38:34;2.40;;;2.20;;
3487;SDS011;38546;48.170;11.724;2022-11-20T14:41:24;3.43;;;3.23;;
3487;SDS011;38546;48.170;11.724;2022-11-20T14:44:14;3.40;;;2.63;;
3487;SDS011;38546;48.170;11.724;2022-11-20T14:47:03;1.83;;;1.80;;
3487;SDS011;38546;48.170;11.724;2022-11-20T14:49:53;3.00;;;2.10;;
3487;SDS011;38546;48.170;11.724;2022-11-20T14:52:51;2.67;;;2.47;;
3487;SDS011;38546;48.170;11.724;2022-11-20T14:55:54;2.93;;;2.73;;
3487;SDS011;38546;48.170;11.724;2022-11-20T14:58:55;2.60;;;2.40;;
3487;SDS011;38546;48.170;11.724;2022-11-20T15:01:54;2.00;;;1.90;;
3487;SDS011;38546;48.170;11.724;2022-11-20T15:04:58;2.17;;;2.07;;
3487;SDS011;38546;48.170;11.724;2022-11-20T15:07:51;2.40;;;2.20;;
3487;SDS011;38546;48.170;11.724;2022-11-20T15:10:57;2.00;;;1.90;;
3487;SDS011;38546;48.170;11.724;2022-11-20T15:13:46;2.00;;;1.77;;
3487;SDS011;38546;48.170;11.724;2022-11-20T15:16:36;2.73;;;2.50;;
3487;SDS011;38546;48.170;11.724;2022-11-20T15:19:25;1.60;;;1.50;;
3487;SDS011;38546;48.170;11.724;2022-11-20T15:22:15;3.17;;;1.90;;
3487;SDS011;38546;48.170;11.724;2022-11-20T15:25:11;1.33;;;1.33;;
3487;SDS011;38546;48.170;11.724;2022-11-20T15:28:02;1.77;;;1.67;;
3487;SDS011;38546;48.170;11.724;2022-11-20T15:30:53;2.47;;;2.27;;
3487;SDS011;38546;48.170;11.724;2022-11-20T15:33:42;2.20;;;2.00;;
3487;SDS011;38546;48.170;11.724;2022-11-20T15:36:31;1.93;;;1.53;;
3487;SDS011;38546;48.170;11.724;2022-11-20T15:39:20;2.10;;;1.40;;
3487;SDS011;38546;48.170;11.724;2022-11-20T15:42:09;1.10;;;1.10;;
3487;SDS011;38546;48.170;11.724;2022-11-20T15:44:59;2.00;;;1.90;;
3487;SDS011;38546;48.170;11.724;2022-11-20T15:47:48;2.00;;;1.90;;
3487;SDS011;38546;48.170;11.724;2022-11-20T15:50:39;1.90;;;1.60;;
3487;SDS011;38546;48.170;11.724;2022-11-20T15:54:18;1.67;;;1.60;;
3487;SDS011;38546;48.170;11.724;2022-11-20T15:57:09;1.83;;;1.73;;
3487;SDS011;38546;48.170;11.724;2022-11-20T15:59:59;2.10;;;1.97;;
3487;SDS011;38546;48.170;11.724;2022-11-20T16:02:48;1.40;;;1.30;;
3487;SDS011;38546;48.170;11.724;2022-11-20T16:05:37;1.97;;;1.87;;
3487;SDS011;38546;48.170;11.724;2022-11-20T16:08:27;2.03;;;1.80;;
3487;SDS011;38546;48.170;11.724;2022-11-20T16:11:16;2.60;;;2.30;;
3487;SDS011;38546;48.170;11.724;2022-11-20T16:14:08;2.93;;;2.70;;
3487;SDS011;38546;48.170;11.724;2022-11-20T16:17:18;8.00;;;3.33;;
3487;SDS011;38546;48.170;11.724;2022-11-20T16:20:30;4.13;;;2.70;;
3487;SDS011;38546;48.170;11.724;2022-11-20T16:23:20;3.67;;;3.33;;
3487;SDS011;38546;48.170;11.724;2022-11-20T16:26:11;5.43;;;2.97;;
3487;SDS011;38546;48.170;11.724;2022-11-20T16:29:03;4.17;;;3.20;;
3487;SDS011;38546;48.170;11.724;2022-11-20T16:31:53;3.43;;;3.03;;
3487;SDS011;38546;48.170;11.724;2022-11-20T16:34:43;3.43;;;3.13;;
3487;SDS011;38546;48.170;11.724;2022-11-20T16:37:32;3.03;;;2.83;;
3487;SDS011;38546;48.170;11.724;2022-11-20T16:40:23;5.73;;;3.57;;
3487;SDS011;38546;48.170;11.724;2022-11-20T16:43:13;2.57;;;2.37;;
3487;SDS011;38546;48.170;11.724;2022-11-20T16:46:03;4.37;;;3.97;;
3487;SDS011;38546;48.170;11.724;2022-11-20T16:48:57;4.07;;;3.67;;
3487;SDS011;38546;48.170;11.724;2022-11-20T16:51:48;6.47;;;4.10;;
3487;SDS011;38546;48.170;11.724;2022-11-20T16:54:37;14.67;;;6.97;;
3487;SDS011;38546;48.170;11.724;2022-11-20T16:57:27;13.00;;;8.40;;
3487;SDS011;38546;48.170;11.724;2022-11-20T17:00:18;8.17;;;6.80;;
3487;SDS011;38546;48.170;11.724;2022-11-20T17:03:07;7.20;;;5.10;;
3487;SDS011;38546;48.170;11.724;2022-11-20T17:05:56;12.73;;;5.80;;
3487;SDS011;38546;48.170;11.724;2022-11-20T17:08:46;6.97;;;4.80;;
3487;SDS011;38546;48.170;11.724;2022-11-20T17:11:36;7.90;;;5.97;;
3487;SDS011;38546;48.170;11.724;2022-11-20T17:14:25;9.27;;;5.87;;
3487;SDS011;38546;48.170;11.724;2022-11-20T17:17:14;6.77;;;4.50;;
3487;SDS011;38546;48.170;11.724;2022-11-20T17:20:04;10.30;;;6.20;;
3487;SDS011;38546;48.170;11.724;2022-11-20T17:22:53;10.67;;;6.30;;
3487;SDS011;38546;48.170;11.724;2022-11-20T17:25:44;7.33;;;6.40;;
3487;SDS011;38546;48.170;11.724;2022-11-20T17:28:33;7.90;;;6.17;;
3487;SDS011;38546;48.170;11.724;2022-11-20T17:31:24;5.73;;;5.27;;
3487;SDS011;38546;48.170;11.724;2022-11-20T17:34:14;8.30;;;6.47;;
3487;SDS011;38546;48.170;11.724;2022-11-20T17:37:04;7.87;;;5.37;;
3487;SDS011;38546;48.170;11.724;2022-11-20T17:39:54;9.00;;;6.17;;
3487;SDS011;38546;48.170;11.724;2022-11-20T17:42:43;9.67;;;6.60;;
3487;SDS011;38546;48.170;11.724;2022-11-20T17:45:34;9.70;;;6.50;;
3487;SDS011;38546;48.170;11.724;2022-11-20T17:48:23;6.63;;;4.90;;
3487;SDS011;38546;48.170;11.724;2022-11-20T17:51:16;10.80;;;6.10;;
3487;SDS011;38546;48.170;11.724;2022-11-20T17:54:10;9.23;;;6.40;;
3487;SDS011;38546;48.170;11.724;2022-11-20T17:56:59;8.03;;;5.33;;
3487;SDS011;38546;48.170;11.724;2022-11-20T18:00:07;9.33;;;5.47;;
3487;SDS011;38546;48.170;11.724;2022-11-20T18:03:00;7.27;;;5.40;;
3487;SDS011;38546;48.170;11.724;2022-11-20T18:05:49;8.33;;;4.80;;
3487;SDS011;38546;48.170;11.724;2022-11-20T18:08:38;7.17;;;5.60;;
3487;SDS011;38546;48.170;11.724;2022-11-20T18:11:30;7.03;;;5.70;;
3487;SDS011;38546;48.170;11.724;2022-11-20T18:14:25;10.70;;;6.60;;
3487;SDS011;38546;48.170;11.724;2022-11-20T18:17:16;12.33;;;8.10;;
3487;SDS011;38546;48.170;11.724;2022-11-20T18:20:06;10.90;;;8.17;;
3487;SDS011;38546;48.170;11.724;2022-11-20T18:22:57;10.57;;;7.67;;
3487;SDS011;38546;48.170;11.724;2022-11-20T18:25:46;10.80;;;8.00;;
3487;SDS011;38546;48.170;11.724;2022-11-20T18:28:36;10.27;;;7.17;;
3487;SDS011;38546;48.170;11.724;2022-11-20T18:31:26;11.40;;;7.03;;
3487;SDS011;38546;48.170;11.724;2022-11-20T18:34:15;13.37;;;7.40;;
3487;SDS011;38546;48.170;11.724;2022-11-20T18:37:05;11.83;;;7.37;;
3487;SDS011;38546;48.170;11.724;2022-11-20T18:39:57;10.73;;;6.70;;